This is the latest recevied weather packets stored in our database for station/object KM8V-8. If no packets are shown the sender has not sent any weather packets the latest 10 day(s).
| Time | Temp. | Humidity | Pressure | Rain* | Wind** | Luminosity | Snow |
|---|---|---|---|---|---|---|---|
| 1777433130 | 12.78° C | 85% | 1012.9 hPa | 0 mm | - | 0 W/m² | - |
| 1777432231 | 13.33° C | 83% | 1013 hPa | 0 mm | - | 0 W/m² | - |
| 1777430130 | 14.44° C | 78% | 1013.1 hPa | 0 mm | - | 0 W/m² | - |
| 1777425017 | 16.11° C | 73% | 1012.9 hPa | 0 mm | - | 0 W/m² | - |
| 1777424717 | 16.11° C | 73% | 1012.7 hPa | 0 mm | - | 0 W/m² | - |
| 1777415418 | 19.44° C | 64% | 1011.5 hPa | 0 mm | - | 132 W/m² | - |
| 1777414220 | 20.56° C | 61% | 1011.2 hPa | 0 mm | - | 395 W/m² | - |
| 1777413919 | 20.56° C | 62% | 1011.1 hPa | 0 mm | - | 390 W/m² | - |
| 1777411520 | 20° C | 63% | 1011 hPa | 0 mm | - | 349 W/m² | - |
| 1777410919 | 20° C | 63% | 1011 hPa | 0 mm | - | 304 W/m² | - |
| 1777410618 | 20° C | 62% | 1011.1 hPa | 0 mm | - | 278 W/m² | - |
| 1777410318 | 20.56° C | 62% | 1011 hPa | 0 mm | - | 434 W/m² | - |
| 1777410019 | 20° C | 63% | 1011.1 hPa | 0 mm | - | 597 W/m² | - |
| 1777409718 | 20° C | 63% | 1011.1 hPa | 0 mm | - | 398 W/m² | - |
| 1777409418 | 20° C | 62% | 1011 hPa | 0 mm | - | 243 W/m² | - |
| 1777409118 | 20° C | 62% | 1010.9 hPa | 0 mm | - | 369 W/m² | - |
| 1777408518 | 20.56° C | 63% | 1010.9 hPa | 0 mm | - | 469 W/m² | - |
| 1777408219 | 20.56° C | 61% | 1011 hPa | 0 mm | - | 435 W/m² | - |
| 1777407919 | 20.56° C | 62% | 1010.9 hPa | 0 mm | - | 700 W/m² | - |
| 1777407618 | 20.56° C | 63% | 1011 hPa | 0 mm | - | 605 W/m² | - |
| 1777407318 | 20° C | 63% | 1010.9 hPa | 0 mm | - | 696 W/m² | - |
| 1777407016 | 20° C | 62% | 1010.9 hPa | 0 mm | - | 546 W/m² | - |
| 1777406719 | 20.56° C | 62% | 1010.9 hPa | 0 mm | - | 504 W/m² | - |
| 1777406117 | 20.56° C | 63% | 1010.9 hPa | 0 mm | - | 491 W/m² | - |
| 1777405820 | 20.56° C | 64% | 1010.9 hPa | 0 mm | - | 594 W/m² | - |
* Rain latest hour (hover to see other rain measurements)
** Current wind speed in m/s (hover to see current wind gust speed)